Time;durP1;ratioP1;P1;durP2;ratioP2;P2;SDS_P1;SDS_P2;PMS_P1;PMS_P2;Temp;Humidity;BMP_temperature;BMP_pressure;BME280_temperature;BME280_humidity;BME280_pressure;Samples;Min_cycle;Max_cycle;Signal;HPM_P1;HPM_P2
2023/09/22 00:00:20;;;;;;;0.50;0.50;;;;;;;13.85;100.00;95646.09;29395;251;63004;-67
2023/09/22 00:00:53;;;;;;;0.40;0.40;;;;;;;13.82;100.00;95650.28;29394;276;64013;-65
2023/09/22 00:01:25;;;;;;;0.40;0.40;;;;;;;13.79;100.00;95648.25;29395;207;63005;-64
2023/09/22 00:01:56;;;;;;;0.40;0.40;;;;;;;13.82;100.00;95653.03;29395;268;63015;-65
2023/09/22 00:02:28;;;;;;;0.50;0.50;;;;;;;13.81;100.00;95654.16;29395;273;63004;-64
2023/09/22 00:02:59;;;;;;;0.40;0.40;;;;;;;13.80;100.00;95655.28;29395;336;63008;-64
2023/09/22 00:03:30;;;;;;;0.40;0.40;;;;;;;13.77;100.00;95661.44;29395;297;63004;-66
2023/09/22 00:04:02;;;;;;;0.40;0.40;;;;;;;13.71;100.00;95658.13;29395;212;63008;-64
2023/09/22 00:04:35;;;;;;;0.40;0.40;;;;;;;13.69;100.00;95654.16;29395;214;63005;-66
2023/09/22 00:05:10;;;;;;;0.40;0.40;;;;;;;13.71;100.00;95655.41;29395;348;63009;-64
2023/09/22 00:06:50;;;;;;;0.43;0.43;;;;;;;13.69;100.00;95651.44;88174;211;64005;-64
2023/09/22 00:07:21;;;;;;;0.40;0.40;;;;;;;13.68;100.00;95647.91;29394;203;64008;-65
2023/09/22 00:07:53;;;;;;;0.50;0.50;;;;;;;13.67;100.00;95646.31;29395;198;63016;-64
2023/09/22 00:08:24;;;;;;;0.50;0.50;;;;;;;13.65;100.00;95648.59;29395;257;63009;-64
2023/09/22 00:08:56;;;;;;;0.50;0.50;;;;;;;13.68;100.00;95647.91;29395;264;63005;-64
2023/09/22 00:09:27;;;;;;;0.50;0.50;;;;;;;13.68;100.00;95647.91;29395;220;63009;-65
2023/09/22 00:09:59;;;;;;;0.40;0.40;;;;;;;13.66;100.00;95654.84;29395;212;63005;-64
2023/09/22 00:10:31;;;;;;;0.40;0.40;;;;;;;13.64;100.00;95657.91;29395;210;63017;-65
2023/09/22 00:11:07;;;;;;;0.40;0.40;;;;;;;13.64;100.00;95657.13;29395;242;63005;-63
2023/09/22 00:11:39;;;;;;;0.40;0.40;;;;;;;13.63;100.00;95663.69;29394;204;64013;-64
2023/09/22 00:12:10;;;;;;;0.40;0.40;;;;;;;13.61;100.00;95668.69;29395;237;63004;-63
2023/09/22 00:12:41;;;;;;;0.47;0.47;;;;;;;13.58;100.00;95661.19;29395;222;63009;-64
2023/09/22 00:13:13;;;;;;;0.50;0.50;;;;;;;13.61;100.00;95663.25;29395;197;63004;-64
2023/09/22 00:13:45;;;;;;;0.40;0.40;;;;;;;13.60;100.00;95667.09;29395;228;63008;-64
2023/09/22 00:14:16;;;;;;;0.50;0.50;;;;;;;13.60;100.00;95656.22;29395;219;63004;-64
2023/09/22 00:14:49;;;;;;;0.50;0.50;;;;;;;13.60;100.00;95657.00;29395;237;63009;-64
2023/09/22 00:15:21;;;;;;;0.40;0.40;;;;;;;13.64;100.00;95659.84;29395;228;63011;-64
2023/09/22 00:15:52;;;;;;;0.40;0.40;;;;;;;13.63;100.00;95667.22;29395;224;63027;-63
2023/09/22 00:16:23;;;;;;;0.50;0.50;;;;;;;13.62;100.00;95659.38;29395;198;63005;-63
2023/09/22 00:16:55;;;;;;;0.50;0.50;;;;;;;13.61;100.00;95664.03;29394;320;64013;-63
2023/09/22 00:17:28;;;;;;;0.50;0.50;;;;;;;13.60;100.00;95669.84;29395;225;63005;-63
2023/09/22 00:17:59;;;;;;;0.50;0.50;;;;;;;13.56;100.00;95664.28;29395;210;63018;-63
2023/09/22 00:18:31;;;;;;;0.50;0.50;;;;;;;13.52;100.00;95668.00;29395;197;63005;-63
2023/09/22 00:19:05;;;;;;;0.50;0.50;;;;;;;13.51;100.00;95661.00;29395;350;63009;-65
2023/09/22 00:19:36;;;;;;;0.40;0.40;;;;;;;13.49;100.00;95663.28;29395;234;63004;-63
2023/09/22 00:20:09;;;;;;;0.40;0.40;;;;;;;13.49;100.00;95664.06;29395;202;63004;-64
2023/09/22 00:20:40;;;;;;;0.45;0.45;;;;;;;13.48;100.00;95661.69;29395;204;63004;-66
2023/09/22 00:22:21;;;;;;;0.50;0.50;;;;;;;13.42;100.00;95661.09;88174;202;64005;-63
2023/09/22 00:22:53;;;;;;;0.50;0.50;;;;;;;13.41;100.00;95660.31;29394;207;64009;-63
2023/09/22 00:23:24;;;;;;;0.40;0.40;;;;;;;13.45;100.00;95659.62;29395;224;63006;-61
2023/09/22 00:23:55;;;;;;;0.45;0.45;;;;;;;13.43;100.00;95651.00;29395;238;63012;-62
2023/09/22 00:24:27;;;;;;;0.50;0.50;;;;;;;13.43;100.00;95646.34;29395;268;63005;-62
2023/09/22 00:25:02;;;;;;;0.40;0.40;;;;;;;13.43;100.00;95645.56;29395;197;63009;-62
2023/09/22 00:25:33;;;;;;;0.40;0.40;;;;;;;13.45;100.00;95648.75;29395;218;63005;-63
2023/09/22 00:26:04;;;;;;;0.40;0.40;;;;;;;13.43;100.00;95645.56;29395;231;63009;-63
2023/09/22 00:26:35;;;;;;;0.40;0.40;;;;;;;13.42;100.00;95650.22;29394;214;64009;-62
2023/09/22 00:27:07;;;;;;;0.40;0.40;;;;;;;13.38;100.00;95643.84;29395;219;63009;-63
2023/09/22 00:27:38;;;;;;;0.40;0.40;;;;;;;13.36;100.00;95644.19;29395;269;63005;-61
2023/09/22 00:28:10;;;;;;;0.50;0.50;;;;;;;13.35;100.00;95645.31;29395;212;63009;-65
2023/09/22 00:28:45;;;;;;;0.50;0.50;;;;;;;13.35;100.00;95645.31;29395;213;63004;-63
2023/09/22 00:29:17;;;;;;;0.50;0.50;;;;;;;13.37;100.00;95647.72;29395;206;63009;-62
2023/09/22 00:29:48;;;;;;;0.40;0.40;;;;;;;13.36;100.00;95640.66;29395;225;63004;-62
2023/09/22 00:30:20;;;;;;;0.40;0.40;;;;;;;13.32;100.00;95640.56;29395;214;63009;-63
2023/09/22 00:30:51;;;;;;;0.50;0.50;;;;;;;13.32;100.00;95635.09;29395;205;63004;-64
2023/09/22 00:31:22;;;;;;;0.40;0.40;;;;;;;13.33;100.00;95635.91;29395;222;63004;-62
2023/09/22 00:31:54;;;;;;;0.50;0.50;;;;;;;13.33;100.00;95631.25;29394;273;64009;-63
2023/09/22 00:32:25;;;;;;;0.50;0.50;;;;;;;13.32;100.00;95624.22;29395;241;63009;-61
2023/09/22 00:32:57;;;;;;;0.40;0.40;;;;;;;13.30;100.00;95625.69;29395;203;63005;-62
2023/09/22 00:33:28;;;;;;;0.50;0.50;;;;;;;13.30;100.00;95618.31;29395;335;63009;-62
2023/09/22 00:34:00;;;;;;;0.50;0.50;;;;;;;13.31;100.00;95627.28;29395;338;63014;-64
2023/09/22 00:34:33;;;;;;;0.50;0.50;;;;;;;13.31;100.00;95621.81;29395;202;63009;-62
2023/09/22 00:35:06;;;;;;;0.50;0.50;;;;;;;13.31;100.00;95617.16;29395;202;63004;-61
2023/09/22 00:35:37;;;;;;;0.50;0.50;;;;;;;13.31;100.00;95610.94;29395;202;63009;-62
2023/09/22 00:36:09;;;;;;;0.50;0.50;;;;;;;13.30;100.00;95612.84;29395;207;63004;-61
2023/09/22 00:37:47;;;;;;;0.44;0.44;;;;;;;13.29;100.00;95608.53;88178;213;64005;-63
2023/09/22 00:38:19;;;;;;;0.50;0.50;;;;;;;13.28;100.00;95606.94;29394;221;64008;-61
2023/09/22 00:38:52;;;;;;;0.40;0.40;;;;;;;13.29;100.00;95614.00;29395;203;63005;-62
2023/09/22 00:39:23;;;;;;;0.47;0.47;;;;;;;13.29;100.00;95621.38;29395;225;63009;-63
2023/09/22 00:39:54;;;;;;;0.50;0.50;;;;;;;13.30;100.00;95615.59;29395;188;63016;-61
2023/09/22 00:40:26;;;;;;;0.50;0.50;;;;;;;13.29;100.00;95622.16;29395;204;63021;-61
2023/09/22 00:40:57;;;;;;;0.50;0.50;;;;;;;13.29;100.00;95624.09;29395;215;63005;-64
2023/09/22 00:41:28;;;;;;;0.50;0.50;;;;;;;13.25;100.00;95623.97;29395;220;63009;-63
2023/09/22 00:42:01;;;;;;;0.50;0.50;;;;;;;13.24;100.00;95638.72;29395;209;63005;-61
2023/09/22 00:42:33;;;;;;;0.50;0.50;;;;;;;13.24;100.00;95636.00;29395;242;63009;-62
2023/09/22 00:43:11;;;;;;;0.50;0.50;;;;;;;13.22;100.00;95630.09;29395;209;63004;-64
2023/09/22 00:43:42;;;;;;;0.50;0.50;;;;;;;13.23;100.00;95633.63;29394;222;64013;-62
2023/09/22 00:44:14;;;;;;;0.50;0.50;;;;;;;13.22;100.00;95630.09;29395;210;63004;-63
2023/09/22 00:44:46;;;;;;;0.50;0.50;;;;;;;13.22;100.00;95641.00;29395;221;63008;-62
2023/09/22 00:45:18;;;;;;;0.40;0.40;;;;;;;13.23;100.00;95642.59;29395;265;63004;-62
2023/09/22 00:45:52;;;;;;;0.50;0.50;;;;;;;13.23;100.00;95652.69;29395;197;63009;-63
2023/09/22 00:46:26;;;;;;;0.50;0.50;;;;;;;13.20;100.00;95654.16;29395;209;63005;-63
2023/09/22 00:46:59;;;;;;;0.45;0.45;;;;;;;13.18;100.00;95648.25;29395;262;63009;-62
2023/09/22 00:47:31;;;;;;;0.50;0.50;;;;;;;13.18;100.00;95655.63;29395;218;63005;-62
2023/09/22 00:48:02;;;;;;;0.40;0.40;;;;;;;13.16;100.00;95652.47;29395;204;63009;-61
2023/09/22 00:48:35;;;;;;;0.40;0.40;;;;;;;13.14;100.00;95666.41;29395;220;63005;-62
2023/09/22 00:49:08;;;;;;;0.50;0.50;;;;;;;13.13;100.00;95662.09;29394;212;64013;-61
2023/09/22 00:49:40;;;;;;;0.50;0.50;;;;;;;13.11;100.00;95658.91;29395;242;63005;-61
2023/09/22 00:50:11;;;;;;;0.50;0.50;;;;;;;13.11;100.00;95661.63;29395;197;63009;-61
2023/09/22 00:50:43;;;;;;;0.50;0.50;;;;;;;13.09;100.00;95664.69;29395;223;63019;-61
2023/09/22 00:51:18;;;;;;;0.40;0.40;;;;;;;13.09;100.00;95669.34;29395;205;63009;-61
2023/09/22 00:52:59;;;;;;;0.43;0.43;;;;;;;13.11;100.00;95675.25;88174;208;64005;-59
2023/09/22 00:53:34;;;;;;;0.50;0.50;;;;;;;13.12;100.00;95671.37;29394;218;64008;-60
2023/09/22 00:54:07;;;;;;;0.50;0.50;;;;;;;13.12;100.00;95673.31;29395;235;63018;-61
2023/09/22 00:54:39;;;;;;;0.40;0.40;;;;;;;13.11;100.00;95680.69;29394;253;64014;-61
2023/09/22 00:55:11;;;;;;;0.50;0.50;;;;;;;13.11;100.00;95677.97;29395;206;63005;-60
2023/09/22 00:55:44;;;;;;;0.45;0.45;;;;;;;13.12;100.00;95679.56;29395;217;63009;-60
2023/09/22 00:56:20;;;;;;;0.50;0.50;;;;;;;13.14;100.00;95679.22;29395;246;63005;-61
2023/09/22 00:56:52;;;;;;;0.50;0.50;;;;;;;13.14;100.00;95674.56;29395;197;63009;-62
2023/09/22 00:57:23;;;;;;;0.40;0.40;;;;;;;13.18;100.00;95672.75;29395;196;63012;-63
2023/09/22 00:57:55;;;;;;;0.40;0.40;;;;;;;13.16;100.00;95675.06;29394;199;64013;-60
2023/09/22 00:58:27;;;;;;;0.50;0.50;;;;;;;13.16;100.00;95675.06;29395;213;63004;-60
2023/09/22 00:58:58;;;;;;;0.50;0.50;;;;;;;13.14;100.00;95671.06;29394;235;64013;-64
2023/09/22 00:59:31;;;;;;;0.40;0.40;;;;;;;13.10;100.00;95673.66;29395;269;63004;-62
2023/09/22 01:00:04;;;;;;;0.40;0.40;;;;;;;13.11;100.00;95679.91;29394;267;64013;-62
2023/09/22 01:00:39;;;;;;;0.50;0.50;;;;;;;13.10;100.00;95676.38;29395;257;63004;-61
2023/09/22 01:01:13;;;;;;;0.50;0.50;;;;;;;13.05;100.00;95668.44;29395;241;63009;-61
2023/09/22 01:01:45;;;;;;;0.50;0.50;;;;;;;13.03;100.00;95676.12;29394;221;64009;-61
2023/09/22 01:02:16;;;;;;;0.50;0.50;;;;;;;13.01;100.00;95672.94;29395;210;63009;-61
2023/09/22 01:02:47;;;;;;;0.50;0.50;;;;;;;13.00;100.00;95671.37;29395;209;63005;-62
2023/09/22 01:03:19;;;;;;;0.50;0.50;;;;;;;13.00;100.00;95671.37;29395;267;63009;-61
2023/09/22 01:03:53;;;;;;;0.50;0.50;;;;;;;12.99;100.00;95676.00;29394;270;64005;-61
2023/09/22 01:04:25;;;;;;;0.50;0.50;;;;;;;12.96;100.00;95678.63;29395;273;63009;-61
2023/09/22 01:05:00;;;;;;;0.50;0.50;;;;;;;12.96;100.00;95675.88;29395;203;63004;-60
2023/09/22 01:05:35;;;;;;;0.50;0.50;;;;;;;12.95;100.00;95674.28;29395;222;63026;-61
2023/09/22 01:06:10;;;;;;;0.50;0.50;;;;;;;12.95;100.00;95674.28;29395;206;63004;-61
2023/09/22 01:06:44;;;;;;;0.50;0.50;;;;;;;12.93;100.00;95671.13;29394;242;64013;-60
2023/09/22 01:07:17;;;;;;;0.50;0.50;;;;;;;12.95;100.00;95674.28;29395;233;63004;-61
2023/09/22 01:07:48;;;;;;;0.40;0.40;;;;;;;12.98;100.00;95674.41;29394;245;64013;-59
2023/09/22 01:08:20;;;;;;;0.50;0.50;;;;;;;12.99;100.00;95672.50;29394;236;64009;-61
2023/09/22 01:08:51;;;;;;;0.50;0.50;;;;;;;12.98;100.00;95668.97;29395;236;63009;-61
2023/09/22 01:09:28;;;;;;;0.50;0.50;;;;;;;12.99;100.00;95669.78;29395;302;63005;-60
2023/09/22 01:10:09;;;;;;;0.50;0.50;;;;;;;12.96;100.00;95659.56;29395;208;63016;-61
2023/09/22 01:10:43;;;;;;;0.50;0.50;;;;;;;12.96;100.00;95659.56;29394;208;64009;-61
2023/09/22 01:11:14;;;;;;;0.50;0.50;;;;;;;12.97;100.00;95656.50;29395;214;63009;-61
2023/09/22 01:11:45;;;;;;;0.50;0.50;;;;;;;12.97;100.00;95656.50;29395;292;63005;-59
2023/09/22 01:12:19;;;;;;;0.50;0.50;;;;;;;12.97;100.00;95645.59;29395;219;63009;-61
2023/09/22 01:12:53;;;;;;;0.40;0.40;;;;;;;12.99;100.00;95642.53;29395;218;63004;-61
2023/09/22 01:13:27;;;;;;;0.40;0.40;;;;;;;12.97;100.00;95645.59;29395;210;63009;-61
2023/09/22 01:13:59;;;;;;;0.50;0.50;;;;;;;12.95;100.00;95638.91;29395;202;63004;-61
2023/09/22 01:14:30;;;;;;;0.50;0.50;;;;;;;12.92;100.00;95636.84;29395;202;63009;-63
2023/09/22 01:15:01;;;;;;;0.45;0.45;;;;;;;12.91;100.00;95635.25;29395;202;63009;-60
2023/09/22 01:15:41;;;;;;;0.50;0.50;;;;;;;12.91;100.00;95629.81;29394;202;64013;-61
2023/09/22 01:16:12;;;;;;;0.50;0.50;;;;;;;12.92;100.00;95631.41;29395;209;63005;-60
2023/09/22 01:16:45;;;;;;;0.40;0.40;;;;;;;12.92;100.00;95634.13;29395;203;63009;-60
2023/09/22 01:17:18;;;;;;;0.50;0.50;;;;;;;12.91;100.00;95635.25;29395;198;63005;-61
2023/09/22 01:17:50;;;;;;;0.50;0.50;;;;;;;12.90;100.00;95633.66;29395;220;63009;-60
2023/09/22 01:18:24;;;;;;;0.50;0.50;;;;;;;12.90;100.00;95622.78;29395;199;63005;-61
2023/09/22 01:18:56;;;;;;;0.40;0.40;;;;;;;12.89;100.00;95627.44;29394;239;64013;-60
2023/09/22 01:19:30;;;;;;;0.50;0.50;;;;;;;12.87;100.00;95623.47;29395;228;63005;-60
2023/09/22 01:20:03;;;;;;;0.40;0.40;;;;;;;12.86;100.00;95621.88;29395;202;63009;-63
2023/09/22 01:20:44;;;;;;;0.50;0.50;;;;;;;12.86;100.00;95633.56;29395;204;63004;-60
2023/09/22 01:21:16;;;;;;;0.50;0.50;;;;;;;12.87;100.00;95635.13;29395;270;63009;-59
2023/09/22 01:21:49;;;;;;;0.50;0.50;;;;;;;12.86;100.00;95628.09;29395;283;63004;-61
2023/09/22 01:22:20;;;;;;;0.50;0.50;;;;;;;12.84;100.00;95635.81;29395;235;63009;-60
2023/09/22 01:22:51;;;;;;;0.50;0.50;;;;;;;12.84;100.00;95629.56;29395;229;63008;-62
2023/09/22 01:23:23;;;;;;;0.50;0.50;;;;;;;12.79;100.00;95627.88;29395;211;63014;-61
2023/09/22 01:24:00;;;;;;;0.50;0.50;;;;;;;12.80;100.00;95628.69;29395;228;63005;-60
2023/09/22 01:24:32;;;;;;;0.50;0.50;;;;;;;12.76;100.00;95631.28;29394;218;64014;-60
2023/09/22 01:25:04;;;;;;;0.50;0.50;;;;;;;12.75;100.00;95633.22;29395;224;63005;-62
2023/09/22 01:25:36;;;;;;;0.40;0.40;;;;;;;12.74;100.00;95619.94;29395;307;63009;-60
2023/09/22 01:26:07;;;;;;;0.50;0.50;;;;;;;12.74;100.00;95626.19;29395;220;63017;-60
2023/09/22 01:26:39;;;;;;;0.40;0.40;;;;;;;12.75;100.00;95627.75;29395;205;63009;-60
2023/09/22 01:27:11;;;;;;;0.50;0.50;;;;;;;12.74;100.00;95628.91;29395;206;63005;-59
2023/09/22 01:27:42;;;;;;;0.40;0.40;;;;;;;12.73;100.00;95630.03;29395;212;63009;-58
2023/09/22 01:28:14;;;;;;;0.50;0.50;;;;;;;12.73;100.00;95618.34;29395;199;63004;-58
2023/09/22 01:28:45;;;;;;;0.40;0.40;;;;;;;12.73;100.00;95618.34;29395;206;63009;-59
2023/09/22 01:29:16;;;;;;;0.40;0.40;;;;;;;12.73;100.00;95621.88;29395;196;63000;-60
2023/09/22 01:29:48;;;;;;;0.40;0.40;;;;;;;12.73;100.00;95618.34;29394;202;64013;-59
2023/09/22 01:30:19;;;;;;;0.50;0.50;;;;;;;12.72;100.00;95612.09;29395;247;63004;-58
2023/09/22 01:30:50;;;;;;;0.50;0.50;;;;;;;12.71;100.00;95615.97;29395;208;63008;-60
2023/09/22 01:31:22;;;;;;;0.50;0.50;;;;;;;12.71;100.00;95618.69;29395;211;63019;-59
2023/09/22 01:31:53;;;;;;;0.50;0.50;;;;;;;12.69;100.00;95612.78;29395;206;63009;-61
2023/09/22 01:32:24;;;;;;;0.50;0.50;;;;;;;12.69;100.00;95618.22;29395;274;63005;-62
2023/09/22 01:32:56;;;;;;;0.47;0.47;;;;;;;12.69;100.00;95620.94;29395;206;63009;-60
2023/09/22 01:33:28;;;;;;;0.50;0.50;;;;;;;12.70;100.00;95630.69;29395;264;63005;-59
2023/09/22 01:33:59;;;;;;;0.50;0.50;;;;;;;12.71;100.00;95628.78;29395;208;63009;-59
2023/09/22 01:34:30;;;;;;;0.50;0.50;;;;;;;12.71;100.00;95626.84;29395;266;63005;-60
2023/09/22 01:35:02;;;;;;;0.50;0.50;;;;;;;12.74;100.00;95633.53;29394;266;64013;-61
2023/09/22 01:35:35;;;;;;;0.50;0.50;;;;;;;12.74;100.00;95637.06;29395;238;63004;-60
2023/09/22 01:36:06;;;;;;;0.50;0.50;;;;;;;12.74;100.00;95642.50;29395;219;63019;-59
2023/09/22 01:36:38;;;;;;;0.40;0.40;;;;;;;12.75;100.00;95646.81;29395;257;63004;-58
2023/09/22 01:37:09;;;;;;;0.50;0.50;;;;;;;12.75;100.00;95644.09;29395;298;63009;-60
2023/09/22 01:37:55;;;;;;;0.50;0.50;;;;;;;12.77;100.00;95648.41;29395;196;63004;-59
2023/09/22 01:38:26;;;;;;;0.50;0.50;;;;;;;12.77;100.00;95645.69;29395;255;63009;-60
2023/09/22 01:39:00;;;;;;;0.40;0.40;;;;;;;12.74;100.00;95653.38;29395;218;63005;-59
2023/09/22 01:39:31;;;;;;;0.50;0.50;;;;;;;12.73;100.00;95651.81;29395;239;63009;-62
2023/09/22 01:40:04;;;;;;;0.50;0.50;;;;;;;12.70;100.00;95652.47;29394;213;64009;-61
2023/09/22 01:40:35;;;;;;;0.50;0.50;;;;;;;12.75;100.00;95646.03;29395;286;63028;-60
2023/09/22 01:41:06;;;;;;;0.50;0.50;;;;;;;12.74;100.00;95650.66;29395;210;63005;-58
2023/09/22 01:41:38;;;;;;;0.50;0.50;;;;;;;12.74;100.00;95652.59;29395;254;63009;-60
2023/09/22 01:42:09;;;;;;;0.50;0.50;;;;;;;12.72;100.00;95652.94;29395;256;63005;-59
2023/09/22 01:42:40;;;;;;;0.47;0.47;;;;;;;12.69;100.00;95645.44;29395;228;63009;-60
2023/09/22 01:43:12;;;;;;;0.50;0.50;;;;;;;12.69;100.00;95650.88;29395;196;63004;-59
2023/09/22 01:43:43;;;;;;;0.47;0.47;;;;;;;12.69;100.00;95647.38;29395;213;63004;-60
2023/09/22 01:44:14;;;;;;;0.40;0.40;;;;;;;12.69;100.00;95648.16;29395;233;63004;-60
2023/09/22 01:44:46;;;;;;;0.40;0.40;;;;;;;12.69;100.00;95650.88;29395;201;63009;-59
2023/09/22 01:45:17;;;;;;;0.50;0.50;;;;;;;12.70;100.00;95647.03;29394;245;64008;-60
2023/09/22 01:45:48;;;;;;;0.50;0.50;;;;;;;12.70;100.00;95651.69;29395;208;63008;-60
2023/09/22 01:46:21;;;;;;;0.47;0.47;;;;;;;12.68;100.00;95649.28;29395;197;63005;-60
2023/09/22 01:46:52;;;;;;;0.50;0.50;;;;;;;12.65;100.00;95655.41;29395;234;63009;-62
2023/09/22 01:47:24;;;;;;;0.50;0.50;;;;;;;12.64;100.00;95653.00;29395;388;63005;-59
2023/09/22 01:47:55;;;;;;;0.40;0.40;;;;;;;12.62;100.00;95650.63;29395;210;63009;-63
2023/09/22 01:48:27;;;;;;;0.50;0.50;;;;;;;12.63;100.00;95652.22;29395;217;63005;-60
2023/09/22 01:48:58;;;;;;;0.40;0.40;;;;;;;12.63;100.00;95652.22;29395;197;63009;-60
2023/09/22 01:49:31;;;;;;;0.40;0.40;;;;;;;12.63;100.00;95652.22;29395;205;63018;-60
2023/09/22 01:50:04;;;;;;;0.43;0.43;;;;;;;12.62;100.00;95649.84;29395;220;63009;-60
2023/09/22 01:50:37;;;;;;;0.40;0.40;;;;;;;12.64;100.00;95653.81;29394;225;64009;-60
2023/09/22 01:51:08;;;;;;;0.45;0.45;;;;;;;12.64;100.00;95653.81;29395;196;63009;-60
2023/09/22 01:51:41;;;;;;;0.40;0.40;;;;;;;12.65;100.00;95649.97;29395;219;63004;-62
2023/09/22 01:52:13;;;;;;;0.40;0.40;;;;;;;12.66;100.00;95654.28;29395;202;63009;-61
2023/09/22 01:52:44;;;;;;;0.40;0.40;;;;;;;12.67;100.00;95657.78;29395;227;63004;-62
2023/09/22 01:53:16;;;;;;;0.50;0.50;;;;;;;12.66;100.00;95651.53;29395;221;63008;-60
2023/09/22 01:53:47;;;;;;;0.40;0.40;;;;;;;12.64;100.00;95647.56;29395;261;63005;-60
2023/09/22 01:54:18;;;;;;;0.40;0.40;;;;;;;12.62;100.00;95650.63;29395;204;63009;-60
2023/09/22 01:54:50;;;;;;;0.40;0.40;;;;;;;12.58;100.00;95638.81;29395;378;63005;-60
2023/09/22 01:55:22;;;;;;;0.50;0.50;;;;;;;12.59;100.00;95645.84;29394;225;64013;-60
2023/09/22 01:55:53;;;;;;;0.50;0.50;;;;;;;12.62;100.00;95639.75;29395;241;63005;-60
2023/09/22 01:56:26;;;;;;;0.40;0.40;;;;;;;12.63;100.00;95635.88;29395;203;63015;-61
2023/09/22 01:56:57;;;;;;;0.50;0.50;;;;;;;12.63;100.00;95625.00;29395;243;63000;-60
2023/09/22 01:57:29;;;;;;;0.40;0.40;;;;;;;12.65;100.00;95630.91;29394;308;64013;-60
2023/09/22 01:58:00;;;;;;;0.50;0.50;;;;;;;12.64;100.00;95626.59;29395;210;63004;-60
2023/09/22 01:58:31;;;;;;;0.50;0.50;;;;;;;12.67;100.00;95627.84;29395;198;63025;-61
2023/09/22 01:59:03;;;;;;;0.40;0.40;;;;;;;12.67;100.00;95631.38;29395;224;63004;-60
2023/09/22 01:59:34;;;;;;;0.40;0.40;;;;;;;12.66;100.00;95635.22;29395;273;63016;-60
2023/09/22 02:00:10;;;;;;;0.50;0.50;;;;;;;12.65;100.00;95638.28;29395;208;63004;-60
2023/09/22 02:00:41;;;;;;;0.45;0.45;;;;;;;12.66;100.00;95648.81;29394;264;64008;-61
2023/09/22 02:01:13;;;;;;;0.50;0.50;;;;;;;12.66;100.00;95643.38;29394;249;64009;-60
2023/09/22 02:01:44;;;;;;;0.47;0.47;;;;;;;12.65;100.00;95644.50;29395;218;63009;-60
2023/09/22 02:02:15;;;;;;;0.50;0.50;;;;;;;12.63;100.00;95635.88;29395;203;63015;-59
2023/09/22 02:02:49;;;;;;;0.45;0.45;;;;;;;12.59;100.00;95640.41;29395;254;63009;-59
2023/09/22 02:03:21;;;;;;;0.47;0.47;;;;;;;12.58;100.00;95638.81;29395;236;63005;-60
2023/09/22 02:03:54;;;;;;;0.47;0.47;;;;;;;12.58;100.00;95627.13;29395;222;63009;-60
2023/09/22 02:04:28;;;;;;;0.50;0.50;;;;;;;12.58;100.00;95627.94;29395;211;63004;-61
2023/09/22 02:05:04;;;;;;;0.50;0.50;;;;;;;12.62;100.00;95626.13;29395;201;63009;-60
2023/09/22 02:05:35;;;;;;;0.50;0.50;;;;;;;12.62;100.00;95620.69;29395;226;63000;-60
2023/09/22 02:06:13;;;;;;;0.50;0.50;;;;;;;12.62;100.00;95617.97;29394;261;64013;-60
2023/09/22 02:06:44;;;;;;;0.50;0.50;;;;;;;12.63;100.00;95619.56;29395;222;63004;-60
2023/09/22 02:07:15;;;;;;;0.50;0.50;;;;;;;12.62;100.00;95620.69;29395;232;63027;-60
2023/09/22 02:07:47;;;;;;;0.50;0.50;;;;;;;12.64;100.00;95617.63;29395;215;63005;-60
2023/09/22 02:09:27;;;;;;;0.50;0.50;;;;;;;12.64;100.00;95629.31;88174;217;64004;-61
2023/09/22 02:10:00;;;;;;;0.50;0.50;;;;;;;12.65;100.00;95627.38;29394;219;64009;-60
2023/09/22 02:10:31;;;;;;;0.50;0.50;;;;;;;12.65;100.00;95628.19;29395;219;63005;-60
2023/09/22 02:11:02;;;;;;;0.50;0.50;;;;;;;12.65;100.00;95627.38;29395;210;63009;-60
2023/09/22 02:11:34;;;;;;;0.50;0.50;;;;;;;12.65;100.00;95632.84;29395;328;63005;-60
2023/09/22 02:12:06;;;;;;;0.50;0.50;;;;;;;12.65;100.00;95624.66;29395;211;63016;-60
2023/09/22 02:12:38;;;;;;;0.43;0.43;;;;;;;12.65;100.00;95622.75;29394;207;64004;-60
2023/09/22 02:13:10;;;;;;;0.47;0.47;;;;;;;12.69;100.00;95628.31;29395;228;63009;-59
2023/09/22 02:13:43;;;;;;;0.50;0.50;;;;;;;12.70;100.00;95619.81;29395;229;63000;-61
2023/09/22 02:14:15;;;;;;;0.50;0.50;;;;;;;12.71;100.00;95626.84;29395;217;63009;-59
2023/09/22 02:14:46;;;;;;;0.50;0.50;;;;;;;12.71;100.00;95621.41;29395;201;63007;-60
2023/09/22 02:15:17;;;;;;;0.50;0.50;;;;;;;12.70;100.00;95619.81;29394;285;64013;-59
2023/09/22 02:15:48;;;;;;;0.40;0.40;;;;;;;12.72;100.00;95623.00;29395;225;63005;-59
2023/09/22 02:16:20;;;;;;;0.50;0.50;;;;;;;12.74;100.00;95620.72;29395;265;63023;-58
2023/09/22 02:16:51;;;;;;;0.50;0.50;;;;;;;12.79;100.00;95622.44;29395;250;63005;-59
2023/09/22 02:17:23;;;;;;;0.50;0.50;;;;;;;12.81;100.00;95624.84;29395;221;63009;-60
2023/09/22 02:17:54;;;;;;;0.50;0.50;;;;;;;12.84;100.00;95624.13;29395;282;63005;-60
2023/09/22 02:18:26;;;;;;;0.47;0.47;;;;;;;12.90;100.00;95625.50;29395;220;63009;-60
2023/09/22 02:18:57;;;;;;;0.40;0.40;;;;;;;12.93;100.00;95628.34;29395;199;63004;-59
2023/09/22 02:19:29;;;;;;;0.40;0.40;;;;;;;12.93;100.00;95633.00;29395;202;63009;-60
2023/09/22 02:20:05;;;;;;;0.45;0.45;;;;;;;12.91;100.00;95629.81;29394;269;64009;-59
2023/09/22 02:20:36;;;;;;;0.50;0.50;;;;;;;12.86;100.00;95630.81;29395;220;63009;-60
2023/09/22 02:21:08;;;;;;;0.40;0.40;;;;;;;12.82;100.00;95624.47;29395;204;63004;-60
2023/09/22 02:21:39;;;;;;;0.40;0.40;;;;;;;12.79;100.00;95629.81;29395;241;63008;-59
2023/09/22 02:22:10;;;;;;;0.40;0.40;;;;;;;12.78;100.00;95630.94;29394;234;64007;-61
2023/09/22 02:22:43;;;;;;;0.40;0.40;;;;;;;12.77;100.00;95629.34;29395;253;63008;-61
2023/09/22 02:23:15;;;;;;;0.40;0.40;;;;;;;12.79;100.00;95629.81;29395;215;63005;-62
2023/09/22 02:24:55;;;;;;;0.50;0.50;;;;;;;12.75;100.00;95635.94;88173;196;64004;-60
2023/09/22 02:25:26;;;;;;;0.40;0.40;;;;;;;12.75;100.00;95643.31;29394;309;64009;-61
2023/09/22 02:26:06;;;;;;;0.50;0.50;;;;;;;12.75;100.00;95635.94;29395;242;63004;-60
2023/09/22 02:26:38;;;;;;;0.50;0.50;;;;;;;12.73;100.00;95645.56;29417;218;63009;-59
2023/09/22 02:27:10;;;;;;;0.50;0.50;;;;;;;12.73;100.00;95637.41;29394;218;64009;-62
2023/09/22 02:27:42;;;;;;;0.45;0.45;;;;;;;12.73;100.00;95643.63;29395;218;63009;-60
2023/09/22 02:28:14;;;;;;;0.50;0.50;;;;;;;12.68;100.00;95638.41;29395;196;63004;-60
2023/09/22 02:28:45;;;;;;;0.40;0.40;;;;;;;12.71;100.00;95643.19;29395;203;63008;-60
2023/09/22 02:29:19;;;;;;;0.50;0.50;;;;;;;12.72;100.00;95644.75;29395;227;63005;-61
2023/09/22 02:29:52;;;;;;;0.50;0.50;;;;;;;12.70;100.00;95644.31;29395;199;63009;-58
2023/09/22 02:30:26;;;;;;;0.50;0.50;;;;;;;12.70;100.00;95644.31;29395;211;63009;-61
2023/09/22 02:30:57;;;;;;;0.40;0.40;;;;;;;12.68;100.00;95640.31;29394;199;64013;-60
2023/09/22 02:31:29;;;;;;;0.40;0.40;;;;;;;12.65;100.00;95644.50;29395;231;63005;-60
2023/09/22 02:32:00;;;;;;;0.40;0.40;;;;;;;12.64;100.00;95640.19;29395;236;63009;-59
2023/09/22 02:32:32;;;;;;;0.50;0.50;;;;;;;12.66;100.00;95645.31;29395;226;63005;-60
2023/09/22 02:33:04;;;;;;;0.50;0.50;;;;;;;12.69;100.00;95650.88;29395;218;63009;-60
2023/09/22 02:33:35;;;;;;;0.50;0.50;;;;;;;12.70;100.00;95647.03;29395;211;63004;-61
2023/09/22 02:34:08;;;;;;;0.40;0.40;;;;;;;12.73;100.00;95646.34;29395;218;63004;-60
2023/09/22 02:34:39;;;;;;;0.50;0.50;;;;;;;12.79;100.00;95643.44;29395;225;63004;-61
2023/09/22 02:35:12;;;;;;;0.40;0.40;;;;;;;12.84;100.00;95635.03;29395;203;63009;-60
2023/09/22 02:35:43;;;;;;;0.50;0.50;;;;;;;12.87;100.00;95643.31;29395;196;63004;-61
2023/09/22 02:36:16;;;;;;;0.50;0.50;;;;;;;12.94;100.00;95646.28;29394;217;64013;-61
2023/09/22 02:36:49;;;;;;;0.50;0.50;;;;;;;12.93;100.00;95638.44;29395;381;63004;-61
2023/09/22 02:37:21;;;;;;;0.47;0.47;;;;;;;12.92;100.00;95642.31;29395;295;63009;-60
2023/09/22 02:37:52;;;;;;;0.50;0.50;;;;;;;12.90;100.00;95629.03;29395;205;63005;-61
2023/09/22 02:38:24;;;;;;;0.50;0.50;;;;;;;12.89;100.00;95632.88;29394;210;64014;-60
2023/09/22 02:38:56;;;;;;;0.50;0.50;;;;;;;12.85;100.00;95637.41;29395;198;63005;-61